Terminal Aerodrome Forecast
Issued by NWS

Home | Current Version | Previous Version | Text Only | Print | Product List | Glossary On
Versions: 1 2 3 4 5 6 7 8 9 10 11 12 13 14
000
FTUS43 KGRR 290500
TAFMKG
TAF
KMKG 290540Z 2906/3006 12005KT P6SM BKN120
     FM291000 13009KT P6SM -SHRA OVC050
     FM291600 17010KT P6SM SCT035 BKN150
     FM300200 16008KT 6SM HZ VCSH BKN035=

USA.gov is the U.S. government's official web portal to all federal, state and local government web resources and services.